sensor_id;sensor_type;location;lat;lon;timestamp;P1;durP1;ratioP1;P2;durP2;ratioP2
42846;SDS011;28495;49.916;14.536;2023-01-24T00:01:25;22.05;;;9.80;;
42846;SDS011;28495;49.916;14.536;2023-01-24T00:06:46;17.63;;;9.52;;
42846;SDS011;28495;49.916;14.536;2023-01-24T00:12:06;20.77;;;11.63;;
42846;SDS011;28495;49.916;14.536;2023-01-24T00:17:27;17.33;;;9.38;;
42846;SDS011;28495;49.916;14.536;2023-01-24T00:22:48;17.45;;;9.95;;
42846;SDS011;28495;49.916;14.536;2023-01-24T00:28:09;15.50;;;8.98;;
42846;SDS011;28495;49.916;14.536;2023-01-24T00:33:29;17.27;;;9.70;;
42846;SDS011;28495;49.916;14.536;2023-01-24T00:38:50;13.43;;;7.10;;
42846;SDS011;28495;49.916;14.536;2023-01-24T00:44:13;18.30;;;10.73;;
42846;SDS011;28495;49.916;14.536;2023-01-24T00:49:34;20.80;;;10.52;;
42846;SDS011;28495;49.916;14.536;2023-01-24T00:54:55;14.85;;;8.25;;
42846;SDS011;28495;49.916;14.536;2023-01-24T01:00:16;18.77;;;10.23;;
42846;SDS011;28495;49.916;14.536;2023-01-24T01:05:37;16.13;;;8.77;;
42846;SDS011;28495;49.916;14.536;2023-01-24T01:10:58;15.35;;;8.45;;
42846;SDS011;28495;49.916;14.536;2023-01-24T01:16:20;21.20;;;10.63;;
42846;SDS011;28495;49.916;14.536;2023-01-24T01:21:40;21.88;;;10.38;;
42846;SDS011;28495;49.916;14.536;2023-01-24T01:27:04;19.92;;;10.90;;
42846;SDS011;28495;49.916;14.536;2023-01-24T01:32:25;17.08;;;9.05;;
42846;SDS011;28495;49.916;14.536;2023-01-24T01:37:46;19.02;;;10.13;;
42846;SDS011;28495;49.916;14.536;2023-01-24T01:43:11;19.10;;;9.57;;
42846;SDS011;28495;49.916;14.536;2023-01-24T01:48:36;14.65;;;7.90;;
42846;SDS011;28495;49.916;14.536;2023-01-24T01:54:01;20.58;;;10.18;;
42846;SDS011;28495;49.916;14.536;2023-01-24T01:59:26;18.60;;;9.77;;
42846;SDS011;28495;49.916;14.536;2023-01-24T02:05:02;16.23;;;8.43;;
42846;SDS011;28495;49.916;14.536;2023-01-24T02:10:25;20.13;;;9.45;;
42846;SDS011;28495;49.916;14.536;2023-01-24T02:16:08;13.60;;;7.70;;
42846;SDS011;28495;49.916;14.536;2023-01-24T02:21:31;20.30;;;10.02;;
42846;SDS011;28495;49.916;14.536;2023-01-24T02:26:53;22.77;;;10.55;;
42846;SDS011;28495;49.916;14.536;2023-01-24T02:32:14;16.65;;;9.20;;
42846;SDS011;28495;49.916;14.536;2023-01-24T02:37:36;18.55;;;9.77;;
42846;SDS011;28495;49.916;14.536;2023-01-24T02:42:58;17.17;;;8.68;;
42846;SDS011;28495;49.916;14.536;2023-01-24T02:48:21;19.83;;;10.02;;
42846;SDS011;28495;49.916;14.536;2023-01-24T02:53:42;19.30;;;8.85;;
42846;SDS011;28495;49.916;14.536;2023-01-24T02:59:02;19.63;;;10.02;;
42846;SDS011;28495;49.916;14.536;2023-01-24T03:04:25;19.77;;;10.05;;
42846;SDS011;28495;49.916;14.536;2023-01-24T03:09:46;24.13;;;10.63;;
42846;SDS011;28495;49.916;14.536;2023-01-24T03:15:12;13.75;;;7.47;;
42846;SDS011;28495;49.916;14.536;2023-01-24T03:20:52;16.15;;;8.35;;
42846;SDS011;28495;49.916;14.536;2023-01-24T03:26:31;22.13;;;11.20;;
42846;SDS011;28495;49.916;14.536;2023-01-24T03:32:13;20.58;;;9.98;;
42846;SDS011;28495;49.916;14.536;2023-01-24T03:37:53;17.13;;;9.77;;
42846;SDS011;28495;49.916;14.536;2023-01-24T03:43:33;17.67;;;8.87;;
42846;SDS011;28495;49.916;14.536;2023-01-24T03:48:54;23.85;;;11.88;;
42846;SDS011;28495;49.916;14.536;2023-01-24T03:54:23;19.47;;;8.93;;
42846;SDS011;28495;49.916;14.536;2023-01-24T03:59:50;25.77;;;11.60;;
42846;SDS011;28495;49.916;14.536;2023-01-24T04:05:12;16.63;;;8.57;;
42846;SDS011;28495;49.916;14.536;2023-01-24T04:10:35;20.35;;;10.60;;
42846;SDS011;28495;49.916;14.536;2023-01-24T04:15:56;16.88;;;8.90;;
42846;SDS011;28495;49.916;14.536;2023-01-24T04:21:37;27.60;;;11.25;;
42846;SDS011;28495;49.916;14.536;2023-01-24T04:26:58;24.27;;;11.60;;
42846;SDS011;28495;49.916;14.536;2023-01-24T04:32:25;26.52;;;11.50;;
42846;SDS011;28495;49.916;14.536;2023-01-24T04:37:51;20.27;;;10.35;;
42846;SDS011;28495;49.916;14.536;2023-01-24T04:43:27;27.08;;;12.55;;
42846;SDS011;28495;49.916;14.536;2023-01-24T04:48:50;25.17;;;12.15;;
42846;SDS011;28495;49.916;14.536;2023-01-24T04:54:11;23.58;;;8.70;;
42846;SDS011;28495;49.916;14.536;2023-01-24T04:59:32;26.23;;;11.75;;
42846;SDS011;28495;49.916;14.536;2023-01-24T05:04:53;21.83;;;11.68;;
42846;SDS011;28495;49.916;14.536;2023-01-24T05:10:14;28.60;;;12.82;;
42846;SDS011;28495;49.916;14.536;2023-01-24T05:15:39;28.10;;;13.32;;
42846;SDS011;28495;49.916;14.536;2023-01-24T05:21:11;31.92;;;13.40;;
42846;SDS011;28495;49.916;14.536;2023-01-24T05:26:35;24.73;;;11.85;;
42846;SDS011;28495;49.916;14.536;2023-01-24T05:31:56;26.52;;;11.98;;
42846;SDS011;28495;49.916;14.536;2023-01-24T05:37:17;22.77;;;11.85;;
42846;SDS011;28495;49.916;14.536;2023-01-24T05:42:42;23.63;;;10.70;;
42846;SDS011;28495;49.916;14.536;2023-01-24T05:48:04;18.70;;;8.05;;
42846;SDS011;28495;49.916;14.536;2023-01-24T05:53:27;23.88;;;10.88;;
42846;SDS011;28495;49.916;14.536;2023-01-24T05:58:48;24.98;;;12.48;;
42846;SDS011;28495;49.916;14.536;2023-01-24T06:04:11;25.10;;;13.15;;
42846;SDS011;28495;49.916;14.536;2023-01-24T06:09:32;28.70;;;13.32;;
42846;SDS011;28495;49.916;14.536;2023-01-24T06:14:54;22.00;;;10.80;;
42846;SDS011;28495;49.916;14.536;2023-01-24T06:20:15;28.50;;;12.25;;
42846;SDS011;28495;49.916;14.536;2023-01-24T06:25:36;26.83;;;12.48;;
42846;SDS011;28495;49.916;14.536;2023-01-24T06:30:59;24.08;;;11.90;;
42846;SDS011;28495;49.916;14.536;2023-01-24T06:42:01;25.67;;;11.60;;
42846;SDS011;28495;49.916;14.536;2023-01-24T06:47:22;22.13;;;11.00;;
42846;SDS011;28495;49.916;14.536;2023-01-24T06:52:46;25.35;;;12.43;;
42846;SDS011;28495;49.916;14.536;2023-01-24T06:58:08;23.33;;;11.48;;
42846;SDS011;28495;49.916;14.536;2023-01-24T07:03:29;28.23;;;12.40;;
42846;SDS011;28495;49.916;14.536;2023-01-24T07:08:49;27.58;;;12.98;;
42846;SDS011;28495;49.916;14.536;2023-01-24T07:14:10;21.15;;;11.27;;
42846;SDS011;28495;49.916;14.536;2023-01-24T07:19:31;27.13;;;13.02;;
42846;SDS011;28495;49.916;14.536;2023-01-24T07:24:52;28.73;;;12.40;;
42846;SDS011;28495;49.916;14.536;2023-01-24T07:30:13;22.20;;;11.68;;
42846;SDS011;28495;49.916;14.536;2023-01-24T07:35:34;28.52;;;12.43;;
42846;SDS011;28495;49.916;14.536;2023-01-24T07:40:55;30.92;;;12.57;;
42846;SDS011;28495;49.916;14.536;2023-01-24T07:46:15;27.50;;;12.10;;
42846;SDS011;28495;49.916;14.536;2023-01-24T07:51:36;24.63;;;11.60;;
42846;SDS011;28495;49.916;14.536;2023-01-24T07:56:57;29.40;;;12.88;;
42846;SDS011;28495;49.916;14.536;2023-01-24T08:02:18;22.40;;;10.43;;
42846;SDS011;28495;49.916;14.536;2023-01-24T08:07:39;23.52;;;11.30;;
42846;SDS011;28495;49.916;14.536;2023-01-24T08:12:59;24.90;;;12.10;;
42846;SDS011;28495;49.916;14.536;2023-01-24T08:18:20;21.50;;;10.13;;
42846;SDS011;28495;49.916;14.536;2023-01-24T08:23:41;23.10;;;10.60;;
42846;SDS011;28495;49.916;14.536;2023-01-24T08:29:02;25.02;;;11.38;;
42846;SDS011;28495;49.916;14.536;2023-01-24T08:34:23;23.02;;;10.70;;
42846;SDS011;28495;49.916;14.536;2023-01-24T08:39:43;25.55;;;10.65;;
42846;SDS011;28495;49.916;14.536;2023-01-24T08:45:04;22.85;;;11.43;;
42846;SDS011;28495;49.916;14.536;2023-01-24T08:50:25;26.25;;;12.07;;
42846;SDS011;28495;49.916;14.536;2023-01-24T08:55:47;26.13;;;12.77;;
42846;SDS011;28495;49.916;14.536;2023-01-24T09:01:10;26.42;;;11.70;;
42846;SDS011;28495;49.916;14.536;2023-01-24T09:06:32;25.15;;;11.57;;
42846;SDS011;28495;49.916;14.536;2023-01-24T09:11:52;24.35;;;11.35;;
42846;SDS011;28495;49.916;14.536;2023-01-24T09:17:13;18.23;;;9.75;;
42846;SDS011;28495;49.916;14.536;2023-01-24T09:22:34;27.15;;;12.57;;
42846;SDS011;28495;49.916;14.536;2023-01-24T09:27:55;26.65;;;11.90;;
42846;SDS011;28495;49.916;14.536;2023-01-24T09:33:16;18.42;;;9.82;;
42846;SDS011;28495;49.916;14.536;2023-01-24T09:38:38;27.95;;;12.43;;
42846;SDS011;28495;49.916;14.536;2023-01-24T09:43:59;17.08;;;9.05;;
42846;SDS011;28495;49.916;14.536;2023-01-24T09:50:09;23.08;;;10.75;;
42846;SDS011;28495;49.916;14.536;2023-01-24T10:01:01;22.67;;;10.93;;
42846;SDS011;28495;49.916;14.536;2023-01-24T10:06:26;25.75;;;11.45;;
42846;SDS011;28495;49.916;14.536;2023-01-24T10:23:16;29.13;;;13.35;;
42846;SDS011;28495;49.916;14.536;2023-01-24T10:28:43;29.08;;;13.88;;
42846;SDS011;28495;49.916;14.536;2023-01-24T10:34:16;23.77;;;11.02;;
42846;SDS011;28495;49.916;14.536;2023-01-24T10:39:45;24.90;;;11.95;;
42846;SDS011;28495;49.916;14.536;2023-01-24T10:50:55;23.77;;;12.13;;
42846;SDS011;28495;49.916;14.536;2023-01-24T10:56:40;22.77;;;10.18;;
42846;SDS011;28495;49.916;14.536;2023-01-24T11:02:01;22.25;;;10.93;;
42846;SDS011;28495;49.916;14.536;2023-01-24T11:07:32;23.33;;;11.30;;
42846;SDS011;28495;49.916;14.536;2023-01-24T11:12:59;22.13;;;10.48;;
42846;SDS011;28495;49.916;14.536;2023-01-24T11:18:25;18.25;;;10.73;;
42846;SDS011;28495;49.916;14.536;2023-01-24T11:29:27;22.75;;;10.00;;
42846;SDS011;28495;49.916;14.536;2023-01-24T11:57:15;19.10;;;9.77;;
42846;SDS011;28495;49.916;14.536;2023-01-24T12:02:48;14.77;;;9.45;;
42846;SDS011;28495;49.916;14.536;2023-01-24T12:25:13;16.05;;;7.55;;
42846;SDS011;28495;49.916;14.536;2023-01-24T12:30:50;17.25;;;8.65;;
42846;SDS011;28495;49.916;14.536;2023-01-24T12:36:35;17.58;;;9.57;;
42846;SDS011;28495;49.916;14.536;2023-01-24T12:42:05;16.20;;;7.72;;
42846;SDS011;28495;49.916;14.536;2023-01-24T12:47:47;18.00;;;8.27;;
42846;SDS011;28495;49.916;14.536;2023-01-24T12:53:14;17.17;;;9.02;;
42846;SDS011;28495;49.916;14.536;2023-01-24T12:58:48;19.77;;;9.25;;
42846;SDS011;28495;49.916;14.536;2023-01-24T13:04:12;14.20;;;7.28;;
42846;SDS011;28495;49.916;14.536;2023-01-24T13:21:37;19.30;;;10.73;;
42846;SDS011;28495;49.916;14.536;2023-01-24T13:27:13;14.93;;;7.95;;
42846;SDS011;28495;49.916;14.536;2023-01-24T13:32:36;18.90;;;9.30;;
42846;SDS011;28495;49.916;14.536;2023-01-24T13:48:56;16.98;;;8.30;;
42846;SDS011;28495;49.916;14.536;2023-01-24T14:11:31;14.88;;;7.93;;
42846;SDS011;28495;49.916;14.536;2023-01-24T14:16:56;16.58;;;8.70;;
42846;SDS011;28495;49.916;14.536;2023-01-24T14:22:21;19.25;;;8.38;;
42846;SDS011;28495;49.916;14.536;2023-01-24T14:27:48;17.23;;;8.90;;
42846;SDS011;28495;49.916;14.536;2023-01-24T14:33:20;15.57;;;8.35;;
42846;SDS011;28495;49.916;14.536;2023-01-24T14:38:47;12.80;;;4.32;;
42846;SDS011;28495;49.916;14.536;2023-01-24T14:44:18;17.70;;;8.85;;
42846;SDS011;28495;49.916;14.536;2023-01-24T14:49:43;16.77;;;8.43;;
42846;SDS011;28495;49.916;14.536;2023-01-24T14:55:22;14.73;;;7.57;;
42846;SDS011;28495;49.916;14.536;2023-01-24T15:01:02;16.98;;;8.50;;
42846;SDS011;28495;49.916;14.536;2023-01-24T15:06:25;13.48;;;8.00;;
42846;SDS011;28495;49.916;14.536;2023-01-24T15:11:47;19.55;;;8.80;;
42846;SDS011;28495;49.916;14.536;2023-01-24T15:17:15;17.75;;;8.68;;
42846;SDS011;28495;49.916;14.536;2023-01-24T15:22:49;13.80;;;8.40;;
42846;SDS011;28495;49.916;14.536;2023-01-24T15:33:56;14.80;;;8.40;;
42846;SDS011;28495;49.916;14.536;2023-01-24T15:39:19;14.93;;;8.20;;
42846;SDS011;28495;49.916;14.536;2023-01-24T15:44:49;14.65;;;8.70;;
42846;SDS011;28495;49.916;14.536;2023-01-24T15:50:17;15.40;;;9.23;;
42846;SDS011;28495;49.916;14.536;2023-01-24T15:56:19;17.30;;;8.88;;
42846;SDS011;28495;49.916;14.536;2023-01-24T16:01:42;18.60;;;9.52;;
42846;SDS011;28495;49.916;14.536;2023-01-24T16:07:03;17.10;;;9.05;;
42846;SDS011;28495;49.916;14.536;2023-01-24T16:12:32;19.30;;;10.23;;
42846;SDS011;28495;49.916;14.536;2023-01-24T16:17:54;20.77;;;10.50;;
42846;SDS011;28495;49.916;14.536;2023-01-24T16:23:15;34.28;;;14.50;;
42846;SDS011;28495;49.916;14.536;2023-01-24T16:28:36;24.15;;;11.10;;
42846;SDS011;28495;49.916;14.536;2023-01-24T16:33:57;22.23;;;11.38;;
42846;SDS011;28495;49.916;14.536;2023-01-24T16:39:19;19.35;;;10.73;;
42846;SDS011;28495;49.916;14.536;2023-01-24T16:44:42;17.35;;;9.95;;
42846;SDS011;28495;49.916;14.536;2023-01-24T16:50:03;19.50;;;10.18;;
42846;SDS011;28495;49.916;14.536;2023-01-24T16:55:25;23.60;;;11.10;;
42846;SDS011;28495;49.916;14.536;2023-01-24T17:00:46;20.13;;;11.57;;
42846;SDS011;28495;49.916;14.536;2023-01-24T17:06:07;20.42;;;10.18;;
42846;SDS011;28495;49.916;14.536;2023-01-24T17:11:29;17.58;;;10.63;;
42846;SDS011;28495;49.916;14.536;2023-01-24T17:16:50;22.63;;;11.32;;
42846;SDS011;28495;49.916;14.536;2023-01-24T17:22:11;22.75;;;11.70;;
42846;SDS011;28495;49.916;14.536;2023-01-24T17:27:32;26.10;;;12.50;;
42846;SDS011;28495;49.916;14.536;2023-01-24T17:32:53;27.63;;;13.57;;
42846;SDS011;28495;49.916;14.536;2023-01-24T17:38:14;25.60;;;11.52;;
42846;SDS011;28495;49.916;14.536;2023-01-24T17:43:36;27.08;;;12.00;;
42846;SDS011;28495;49.916;14.536;2023-01-24T17:49:11;29.63;;;15.30;;
42846;SDS011;28495;49.916;14.536;2023-01-24T17:54:32;27.35;;;13.20;;
42846;SDS011;28495;49.916;14.536;2023-01-24T17:59:53;22.95;;;12.60;;
42846;SDS011;28495;49.916;14.536;2023-01-24T18:05:14;32.55;;;14.13;;
42846;SDS011;28495;49.916;14.536;2023-01-24T18:10:36;26.17;;;14.52;;
42846;SDS011;28495;49.916;14.536;2023-01-24T18:16:01;32.10;;;13.80;;
42846;SDS011;28495;49.916;14.536;2023-01-24T18:21:26;28.63;;;12.40;;
42846;SDS011;28495;49.916;14.536;2023-01-24T18:26:46;29.00;;;13.18;;
42846;SDS011;28495;49.916;14.536;2023-01-24T18:32:07;31.63;;;14.05;;
42846;SDS011;28495;49.916;14.536;2023-01-24T18:37:28;31.00;;;15.70;;
42846;SDS011;28495;49.916;14.536;2023-01-24T18:42:49;30.02;;;15.18;;
42846;SDS011;28495;49.916;14.536;2023-01-24T18:48:09;31.55;;;16.20;;
42846;SDS011;28495;49.916;14.536;2023-01-24T18:53:30;33.15;;;16.63;;
42846;SDS011;28495;49.916;14.536;2023-01-24T18:58:51;42.78;;;19.25;;
42846;SDS011;28495;49.916;14.536;2023-01-24T19:04:12;31.90;;;15.55;;
42846;SDS011;28495;49.916;14.536;2023-01-24T19:09:33;34.25;;;14.90;;
42846;SDS011;28495;49.916;14.536;2023-01-24T19:14:54;33.03;;;15.30;;
42846;SDS011;28495;49.916;14.536;2023-01-24T19:27:11;33.25;;;16.27;;
42846;SDS011;28495;49.916;14.536;2023-01-24T19:32:33;31.83;;;15.43;;
42846;SDS011;28495;49.916;14.536;2023-01-24T19:37:56;39.58;;;17.45;;
42846;SDS011;28495;49.916;14.536;2023-01-24T19:43:17;29.48;;;14.07;;
42846;SDS011;28495;49.916;14.536;2023-01-24T19:48:38;33.05;;;16.23;;
42846;SDS011;28495;49.916;14.536;2023-01-24T19:53:59;32.33;;;15.95;;
42846;SDS011;28495;49.916;14.536;2023-01-24T19:59:20;36.38;;;17.15;;
42846;SDS011;28495;49.916;14.536;2023-01-24T20:04:42;38.42;;;16.48;;
42846;SDS011;28495;49.916;14.536;2023-01-24T20:10:11;36.55;;;17.40;;
42846;SDS011;28495;49.916;14.536;2023-01-24T20:15:33;36.88;;;17.10;;
42846;SDS011;28495;49.916;14.536;2023-01-24T20:20:54;32.10;;;14.48;;
42846;SDS011;28495;49.916;14.536;2023-01-24T20:26:15;33.17;;;16.02;;
42846;SDS011;28495;49.916;14.536;2023-01-24T20:31:36;30.63;;;14.40;;
42846;SDS011;28495;49.916;14.536;2023-01-24T20:36:56;28.17;;;14.32;;
42846;SDS011;28495;49.916;14.536;2023-01-24T20:42:17;36.03;;;15.18;;
42846;SDS011;28495;49.916;14.536;2023-01-24T20:47:38;40.15;;;16.90;;
42846;SDS011;28495;49.916;14.536;2023-01-24T20:52:59;37.13;;;16.35;;
42846;SDS011;28495;49.916;14.536;2023-01-24T20:58:20;44.67;;;19.00;;
42846;SDS011;28495;49.916;14.536;2023-01-24T21:03:42;44.28;;;19.98;;
42846;SDS011;28495;49.916;14.536;2023-01-24T21:09:03;37.40;;;17.40;;
42846;SDS011;28495;49.916;14.536;2023-01-24T21:14:24;43.58;;;17.42;;
42846;SDS011;28495;49.916;14.536;2023-01-24T21:19:46;40.35;;;18.70;;
42846;SDS011;28495;49.916;14.536;2023-01-24T21:25:08;42.40;;;18.58;;
42846;SDS011;28495;49.916;14.536;2023-01-24T21:30:30;41.92;;;18.98;;
42846;SDS011;28495;49.916;14.536;2023-01-24T21:35:58;42.08;;;19.80;;
42846;SDS011;28495;49.916;14.536;2023-01-24T21:41:22;41.60;;;19.95;;
42846;SDS011;28495;49.916;14.536;2023-01-24T21:47:02;44.70;;;19.08;;
42846;SDS011;28495;49.916;14.536;2023-01-24T21:52:24;46.40;;;19.45;;
42846;SDS011;28495;49.916;14.536;2023-01-24T21:57:45;43.15;;;19.58;;
42846;SDS011;28495;49.916;14.536;2023-01-24T22:03:35;40.13;;;18.77;;
42846;SDS011;28495;49.916;14.536;2023-01-24T22:08:56;43.00;;;18.17;;
42846;SDS011;28495;49.916;14.536;2023-01-24T22:14:20;43.13;;;17.67;;
42846;SDS011;28495;49.916;14.536;2023-01-24T22:19:53;47.00;;;19.67;;
42846;SDS011;28495;49.916;14.536;2023-01-24T22:25:27;45.97;;;19.33;;
42846;SDS011;28495;49.916;14.536;2023-01-24T22:31:03;42.30;;;18.40;;
42846;SDS011;28495;49.916;14.536;2023-01-24T22:36:24;34.20;;;16.58;;
42846;SDS011;28495;49.916;14.536;2023-01-24T22:41:45;41.10;;;18.65;;
42846;SDS011;28495;49.916;14.536;2023-01-24T22:47:06;42.60;;;19.50;;
42846;SDS011;28495;49.916;14.536;2023-01-24T22:52:26;39.78;;;18.38;;
42846;SDS011;28495;49.916;14.536;2023-01-24T22:57:47;40.53;;;17.27;;
42846;SDS011;28495;49.916;14.536;2023-01-24T23:03:08;37.28;;;16.65;;
42846;SDS011;28495;49.916;14.536;2023-01-24T23:08:28;41.47;;;17.38;;
42846;SDS011;28495;49.916;14.536;2023-01-24T23:13:49;35.67;;;16.10;;
42846;SDS011;28495;49.916;14.536;2023-01-24T23:19:30;43.23;;;18.77;;
42846;SDS011;28495;49.916;14.536;2023-01-24T23:25:11;34.05;;;17.23;;
42846;SDS011;28495;49.916;14.536;2023-01-24T23:30:45;38.70;;;17.17;;
42846;SDS011;28495;49.916;14.536;2023-01-24T23:36:13;38.83;;;15.93;;
42846;SDS011;28495;49.916;14.536;2023-01-24T23:41:34;37.97;;;15.07;;
42846;SDS011;28495;49.916;14.536;2023-01-24T23:46:54;36.33;;;16.27;;
42846;SDS011;28495;49.916;14.536;2023-01-24T23:52:15;36.40;;;16.38;;
42846;SDS011;28495;49.916;14.536;2023-01-24T23:57:37;37.70;;;15.90;;
